sensor_id;sensor_type;location;lat;lon;timestamp;P1;durP1;ratioP1;P2;durP2;ratioP2
7545;SDS011;3814;51.454;12.616;2023-05-10T00:01:14;7.10;;;4.15;;
7545;SDS011;3814;51.454;12.616;2023-05-10T00:03:39;9.07;;;4.35;;
7545;SDS011;3814;51.454;12.616;2023-05-10T00:06:05;9.60;;;4.25;;
7545;SDS011;3814;51.454;12.616;2023-05-10T00:08:30;7.88;;;3.92;;
7545;SDS011;3814;51.454;12.616;2023-05-10T00:10:55;7.28;;;3.72;;
7545;SDS011;3814;51.454;12.616;2023-05-10T00:13:21;6.47;;;3.92;;
7545;SDS011;3814;51.454;12.616;2023-05-10T00:15:47;5.88;;;3.65;;
7545;SDS011;3814;51.454;12.616;2023-05-10T00:18:12;9.20;;;4.40;;
7545;SDS011;3814;51.454;12.616;2023-05-10T00:20:37;9.13;;;4.25;;
7545;SDS011;3814;51.454;12.616;2023-05-10T00:23:02;6.85;;;4.28;;
7545;SDS011;3814;51.454;12.616;2023-05-10T00:25:28;6.97;;;4.22;;
7545;SDS011;3814;51.454;12.616;2023-05-10T00:27:53;7.38;;;4.10;;
7545;SDS011;3814;51.454;12.616;2023-05-10T00:30:20;8.07;;;4.13;;
7545;SDS011;3814;51.454;12.616;2023-05-10T00:32:45;9.15;;;4.68;;
7545;SDS011;3814;51.454;12.616;2023-05-10T00:35:12;8.95;;;4.30;;
7545;SDS011;3814;51.454;12.616;2023-05-10T00:37:38;7.78;;;4.30;;
7545;SDS011;3814;51.454;12.616;2023-05-10T00:40:03;7.68;;;4.15;;
7545;SDS011;3814;51.454;12.616;2023-05-10T00:42:29;8.30;;;4.30;;
7545;SDS011;3814;51.454;12.616;2023-05-10T00:44:55;6.88;;;3.95;;
7545;SDS011;3814;51.454;12.616;2023-05-10T00:47:21;8.15;;;4.57;;
7545;SDS011;3814;51.454;12.616;2023-05-10T00:49:46;7.60;;;4.25;;
7545;SDS011;3814;51.454;12.616;2023-05-10T00:52:12;8.48;;;4.50;;
7545;SDS011;3814;51.454;12.616;2023-05-10T00:54:37;9.60;;;4.45;;
7545;SDS011;3814;51.454;12.616;2023-05-10T00:57:03;6.65;;;4.05;;
7545;SDS011;3814;51.454;12.616;2023-05-10T00:59:28;6.97;;;3.92;;
7545;SDS011;3814;51.454;12.616;2023-05-10T01:01:53;7.53;;;4.20;;
7545;SDS011;3814;51.454;12.616;2023-05-10T01:04:19;7.28;;;3.90;;
7545;SDS011;3814;51.454;12.616;2023-05-10T01:06:50;6.75;;;4.10;;
7545;SDS011;3814;51.454;12.616;2023-05-10T01:09:16;10.10;;;4.30;;
7545;SDS011;3814;51.454;12.616;2023-05-10T01:11:42;9.30;;;4.38;;
7545;SDS011;3814;51.454;12.616;2023-05-10T01:14:07;6.60;;;3.85;;
7545;SDS011;3814;51.454;12.616;2023-05-10T01:16:34;8.35;;;4.20;;
7545;SDS011;3814;51.454;12.616;2023-05-10T01:21:37;7.97;;;3.80;;
7545;SDS011;3814;51.454;12.616;2023-05-10T01:29:44;7.97;;;3.90;;
7545;SDS011;3814;51.454;12.616;2023-05-10T01:35:26;8.88;;;3.72;;
7545;SDS011;3814;51.454;12.616;2023-05-10T01:38:04;7.00;;;4.00;;
7545;SDS011;3814;51.454;12.616;2023-05-10T01:44:02;10.30;;;3.80;;
7545;SDS011;3814;51.454;12.616;2023-05-10T01:46:35;6.60;;;4.07;;
7545;SDS011;3814;51.454;12.616;2023-05-10T01:49:08;8.52;;;4.20;;
7545;SDS011;3814;51.454;12.616;2023-05-10T01:51:45;8.45;;;4.00;;
7545;SDS011;3814;51.454;12.616;2023-05-10T01:54:13;7.00;;;3.97;;
7545;SDS011;3814;51.454;12.616;2023-05-10T01:56:39;9.43;;;3.70;;
7545;SDS011;3814;51.454;12.616;2023-05-10T01:59:06;6.55;;;4.10;;
7545;SDS011;3814;51.454;12.616;2023-05-10T02:01:35;6.30;;;3.97;;
7545;SDS011;3814;51.454;12.616;2023-05-10T02:04:01;8.02;;;4.13;;
7545;SDS011;3814;51.454;12.616;2023-05-10T02:06:27;7.28;;;3.90;;
7545;SDS011;3814;51.454;12.616;2023-05-10T02:08:53;7.25;;;4.20;;
7545;SDS011;3814;51.454;12.616;2023-05-10T02:11:18;6.05;;;3.80;;
7545;SDS011;3814;51.454;12.616;2023-05-10T02:13:46;9.55;;;4.05;;
7545;SDS011;3814;51.454;12.616;2023-05-10T02:16:12;8.43;;;4.07;;
7545;SDS011;3814;51.454;12.616;2023-05-10T02:18:38;7.35;;;3.95;;
7545;SDS011;3814;51.454;12.616;2023-05-10T02:21:04;5.80;;;3.35;;
7545;SDS011;3814;51.454;12.616;2023-05-10T02:23:29;7.85;;;4.13;;
7545;SDS011;3814;51.454;12.616;2023-05-10T02:25:55;8.23;;;4.10;;
7545;SDS011;3814;51.454;12.616;2023-05-10T02:28:21;8.40;;;4.13;;
7545;SDS011;3814;51.454;12.616;2023-05-10T02:30:48;7.72;;;4.60;;
7545;SDS011;3814;51.454;12.616;2023-05-10T02:33:14;6.38;;;3.97;;
7545;SDS011;3814;51.454;12.616;2023-05-10T02:35:39;14.68;;;5.95;;
7545;SDS011;3814;51.454;12.616;2023-05-10T02:38:05;6.85;;;4.10;;
7545;SDS011;3814;51.454;12.616;2023-05-10T02:40:31;8.00;;;4.75;;
7545;SDS011;3814;51.454;12.616;2023-05-10T02:42:57;7.05;;;4.43;;
7545;SDS011;3814;51.454;12.616;2023-05-10T02:45:26;7.05;;;4.07;;
7545;SDS011;3814;51.454;12.616;2023-05-10T02:47:53;9.60;;;4.05;;
7545;SDS011;3814;51.454;12.616;2023-05-10T02:50:18;7.82;;;3.88;;
7545;SDS011;3814;51.454;12.616;2023-05-10T02:52:46;8.50;;;4.55;;
7545;SDS011;3814;51.454;12.616;2023-05-10T02:55:14;8.40;;;4.28;;
7545;SDS011;3814;51.454;12.616;2023-05-10T02:57:41;10.18;;;4.35;;
7545;SDS011;3814;51.454;12.616;2023-05-10T03:00:10;7.45;;;3.80;;
7545;SDS011;3814;51.454;12.616;2023-05-10T03:02:35;7.05;;;4.30;;
7545;SDS011;3814;51.454;12.616;2023-05-10T03:05:01;7.65;;;3.95;;
7545;SDS011;3814;51.454;12.616;2023-05-10T03:07:27;7.90;;;4.00;;
7545;SDS011;3814;51.454;12.616;2023-05-10T03:09:53;8.55;;;3.85;;
7545;SDS011;3814;51.454;12.616;2023-05-10T03:12:32;7.70;;;4.30;;
7545;SDS011;3814;51.454;12.616;2023-05-10T03:18:21;7.47;;;3.65;;
7545;SDS011;3814;51.454;12.616;2023-05-10T03:20:48;7.72;;;4.03;;
7545;SDS011;3814;51.454;12.616;2023-05-10T03:23:30;8.18;;;4.45;;
7545;SDS011;3814;51.454;12.616;2023-05-10T03:26:00;6.88;;;4.07;;
7545;SDS011;3814;51.454;12.616;2023-05-10T03:28:26;7.50;;;4.03;;
7545;SDS011;3814;51.454;12.616;2023-05-10T03:30:52;7.07;;;4.10;;
7545;SDS011;3814;51.454;12.616;2023-05-10T03:33:18;7.32;;;3.97;;
7545;SDS011;3814;51.454;12.616;2023-05-10T03:35:44;6.38;;;3.88;;
7545;SDS011;3814;51.454;12.616;2023-05-10T03:38:10;7.45;;;4.00;;
7545;SDS011;3814;51.454;12.616;2023-05-10T03:40:36;8.77;;;4.15;;
7545;SDS011;3814;51.454;12.616;2023-05-10T03:43:02;8.15;;;4.03;;
7545;SDS011;3814;51.454;12.616;2023-05-10T03:45:27;7.32;;;4.57;;
7545;SDS011;3814;51.454;12.616;2023-05-10T03:47:52;7.07;;;4.00;;
7545;SDS011;3814;51.454;12.616;2023-05-10T03:50:18;7.63;;;4.20;;
7545;SDS011;3814;51.454;12.616;2023-05-10T03:52:44;7.65;;;4.47;;
7545;SDS011;3814;51.454;12.616;2023-05-10T03:55:10;8.60;;;4.28;;
7545;SDS011;3814;51.454;12.616;2023-05-10T03:57:35;10.77;;;4.38;;
7545;SDS011;3814;51.454;12.616;2023-05-10T04:00:01;7.80;;;4.30;;
7545;SDS011;3814;51.454;12.616;2023-05-10T04:02:26;12.77;;;4.28;;
7545;SDS011;3814;51.454;12.616;2023-05-10T04:04:51;8.52;;;4.10;;
7545;SDS011;3814;51.454;12.616;2023-05-10T04:07:17;8.90;;;4.47;;
7545;SDS011;3814;51.454;12.616;2023-05-10T04:09:43;6.55;;;4.00;;
7545;SDS011;3814;51.454;12.616;2023-05-10T04:12:08;7.28;;;4.30;;
7545;SDS011;3814;51.454;12.616;2023-05-10T04:14:33;8.18;;;4.20;;
7545;SDS011;3814;51.454;12.616;2023-05-10T04:16:59;9.13;;;4.40;;
7545;SDS011;3814;51.454;12.616;2023-05-10T04:19:28;7.20;;;4.13;;
7545;SDS011;3814;51.454;12.616;2023-05-10T04:21:53;7.43;;;4.07;;
7545;SDS011;3814;51.454;12.616;2023-05-10T04:24:19;7.25;;;4.43;;
7545;SDS011;3814;51.454;12.616;2023-05-10T04:26:44;9.05;;;4.20;;
7545;SDS011;3814;51.454;12.616;2023-05-10T04:29:10;7.32;;;3.63;;
7545;SDS011;3814;51.454;12.616;2023-05-10T04:31:35;7.55;;;4.35;;
7545;SDS011;3814;51.454;12.616;2023-05-10T04:34:01;8.05;;;4.13;;
7545;SDS011;3814;51.454;12.616;2023-05-10T04:36:26;9.70;;;4.40;;
7545;SDS011;3814;51.454;12.616;2023-05-10T04:38:52;8.02;;;4.20;;
7545;SDS011;3814;51.454;12.616;2023-05-10T04:41:17;9.77;;;4.30;;
7545;SDS011;3814;51.454;12.616;2023-05-10T04:43:43;7.07;;;4.05;;
7545;SDS011;3814;51.454;12.616;2023-05-10T04:46:08;10.07;;;3.75;;
7545;SDS011;3814;51.454;12.616;2023-05-10T04:48:33;8.75;;;3.92;;
7545;SDS011;3814;51.454;12.616;2023-05-10T04:50:59;8.00;;;3.83;;
7545;SDS011;3814;51.454;12.616;2023-05-10T04:53:24;7.10;;;3.72;;
7545;SDS011;3814;51.454;12.616;2023-05-10T04:55:49;9.10;;;3.70;;
7545;SDS011;3814;51.454;12.616;2023-05-10T04:58:15;6.13;;;3.65;;
7545;SDS011;3814;51.454;12.616;2023-05-10T05:00:40;6.13;;;3.35;;
7545;SDS011;3814;51.454;12.616;2023-05-10T05:03:06;7.85;;;3.80;;
7545;SDS011;3814;51.454;12.616;2023-05-10T05:05:31;8.85;;;3.45;;
7545;SDS011;3814;51.454;12.616;2023-05-10T05:07:57;6.78;;;3.33;;
7545;SDS011;3814;51.454;12.616;2023-05-10T05:10:22;7.13;;;3.67;;
7545;SDS011;3814;51.454;12.616;2023-05-10T05:12:47;7.13;;;3.20;;
7545;SDS011;3814;51.454;12.616;2023-05-10T05:15:12;4.90;;;3.30;;
7545;SDS011;3814;51.454;12.616;2023-05-10T05:17:38;5.93;;;3.70;;
7545;SDS011;3814;51.454;12.616;2023-05-10T05:20:03;5.20;;;3.10;;
7545;SDS011;3814;51.454;12.616;2023-05-10T05:22:29;6.57;;;3.50;;
7545;SDS011;3814;51.454;12.616;2023-05-10T05:24:55;5.25;;;3.40;;
7545;SDS011;3814;51.454;12.616;2023-05-10T05:27:20;4.72;;;3.13;;
7545;SDS011;3814;51.454;12.616;2023-05-10T05:29:49;6.38;;;3.45;;
7545;SDS011;3814;51.454;12.616;2023-05-10T05:32:14;6.78;;;3.70;;
7545;SDS011;3814;51.454;12.616;2023-05-10T05:34:40;5.55;;;3.38;;
7545;SDS011;3814;51.454;12.616;2023-05-10T05:37:05;6.00;;;3.25;;
7545;SDS011;3814;51.454;12.616;2023-05-10T05:39:31;6.05;;;3.83;;
7545;SDS011;3814;51.454;12.616;2023-05-10T05:41:56;7.78;;;3.40;;
7545;SDS011;3814;51.454;12.616;2023-05-10T05:44:21;5.45;;;3.47;;
7545;SDS011;3814;51.454;12.616;2023-05-10T05:46:46;7.45;;;3.65;;
7545;SDS011;3814;51.454;12.616;2023-05-10T05:49:12;6.65;;;3.85;;
7545;SDS011;3814;51.454;12.616;2023-05-10T05:51:37;5.57;;;3.50;;
7545;SDS011;3814;51.454;12.616;2023-05-10T05:54:02;6.55;;;3.05;;
7545;SDS011;3814;51.454;12.616;2023-05-10T05:56:29;5.68;;;3.50;;
7545;SDS011;3814;51.454;12.616;2023-05-10T05:58:54;5.00;;;3.33;;
7545;SDS011;3814;51.454;12.616;2023-05-10T06:01:20;4.88;;;3.33;;
7545;SDS011;3814;51.454;12.616;2023-05-10T06:03:45;5.13;;;3.20;;
7545;SDS011;3814;51.454;12.616;2023-05-10T06:06:10;7.40;;;3.45;;
7545;SDS011;3814;51.454;12.616;2023-05-10T06:08:36;6.90;;;3.63;;
7545;SDS011;3814;51.454;12.616;2023-05-10T06:11:01;5.35;;;3.47;;
7545;SDS011;3814;51.454;12.616;2023-05-10T06:13:26;7.90;;;3.67;;
7545;SDS011;3814;51.454;12.616;2023-05-10T06:15:57;5.53;;;3.50;;
7545;SDS011;3814;51.454;12.616;2023-05-10T06:18:25;5.68;;;3.28;;
7545;SDS011;3814;51.454;12.616;2023-05-10T06:20:51;7.00;;;3.08;;
7545;SDS011;3814;51.454;12.616;2023-05-10T06:23:16;4.97;;;2.85;;
7545;SDS011;3814;51.454;12.616;2023-05-10T06:25:42;5.93;;;3.97;;
7545;SDS011;3814;51.454;12.616;2023-05-10T06:28:07;7.90;;;3.60;;
7545;SDS011;3814;51.454;12.616;2023-05-10T06:30:32;4.57;;;3.28;;
7545;SDS011;3814;51.454;12.616;2023-05-10T06:32:57;5.82;;;3.55;;
7545;SDS011;3814;51.454;12.616;2023-05-10T06:35:23;4.95;;;3.30;;
7545;SDS011;3814;51.454;12.616;2023-05-10T06:37:48;8.15;;;3.50;;
7545;SDS011;3814;51.454;12.616;2023-05-10T06:40:14;7.35;;;3.25;;
7545;SDS011;3814;51.454;12.616;2023-05-10T06:42:39;6.68;;;3.60;;
7545;SDS011;3814;51.454;12.616;2023-05-10T06:45:05;5.55;;;2.92;;
7545;SDS011;3814;51.454;12.616;2023-05-10T06:47:30;6.18;;;3.10;;
7545;SDS011;3814;51.454;12.616;2023-05-10T06:49:56;5.40;;;3.55;;
7545;SDS011;3814;51.454;12.616;2023-05-10T06:52:21;5.57;;;3.30;;
7545;SDS011;3814;51.454;12.616;2023-05-10T06:54:47;6.97;;;3.78;;
7545;SDS011;3814;51.454;12.616;2023-05-10T06:57:12;5.35;;;3.58;;
7545;SDS011;3814;51.454;12.616;2023-05-10T06:59:37;5.75;;;3.28;;
7545;SDS011;3814;51.454;12.616;2023-05-10T07:02:03;5.07;;;3.30;;
7545;SDS011;3814;51.454;12.616;2023-05-10T07:04:28;5.07;;;3.38;;
7545;SDS011;3814;51.454;12.616;2023-05-10T07:06:53;7.75;;;3.53;;
7545;SDS011;3814;51.454;12.616;2023-05-10T07:09:19;5.22;;;3.10;;
7545;SDS011;3814;51.454;12.616;2023-05-10T07:11:44;6.72;;;3.45;;
7545;SDS011;3814;51.454;12.616;2023-05-10T07:14:09;6.93;;;3.33;;
7545;SDS011;3814;51.454;12.616;2023-05-10T07:16:35;6.57;;;3.53;;
7545;SDS011;3814;51.454;12.616;2023-05-10T07:19:00;6.50;;;2.90;;
7545;SDS011;3814;51.454;12.616;2023-05-10T07:21:25;6.60;;;3.38;;
7545;SDS011;3814;51.454;12.616;2023-05-10T07:23:53;5.78;;;3.08;;
7545;SDS011;3814;51.454;12.616;2023-05-10T07:26:18;4.88;;;2.85;;
7545;SDS011;3814;51.454;12.616;2023-05-10T07:28:44;4.50;;;3.13;;
7545;SDS011;3814;51.454;12.616;2023-05-10T07:31:09;5.28;;;3.20;;
7545;SDS011;3814;51.454;12.616;2023-05-10T07:33:34;5.95;;;2.90;;
7545;SDS011;3814;51.454;12.616;2023-05-10T07:36:00;6.90;;;3.38;;
7545;SDS011;3814;51.454;12.616;2023-05-10T07:38:25;5.07;;;3.03;;
7545;SDS011;3814;51.454;12.616;2023-05-10T07:40:50;5.95;;;3.08;;
7545;SDS011;3814;51.454;12.616;2023-05-10T07:43:16;6.45;;;3.10;;
7545;SDS011;3814;51.454;12.616;2023-05-10T07:45:41;6.45;;;3.15;;
7545;SDS011;3814;51.454;12.616;2023-05-10T07:48:07;5.63;;;3.15;;
7545;SDS011;3814;51.454;12.616;2023-05-10T07:50:32;5.55;;;3.30;;
7545;SDS011;3814;51.454;12.616;2023-05-10T07:52:57;5.60;;;2.97;;
7545;SDS011;3814;51.454;12.616;2023-05-10T07:55:23;7.00;;;3.35;;
7545;SDS011;3814;51.454;12.616;2023-05-10T07:57:48;6.15;;;3.20;;
7545;SDS011;3814;51.454;12.616;2023-05-10T08:00:13;7.95;;;3.45;;
7545;SDS011;3814;51.454;12.616;2023-05-10T08:02:42;5.55;;;3.10;;
7545;SDS011;3814;51.454;12.616;2023-05-10T08:05:07;5.85;;;3.25;;
7545;SDS011;3814;51.454;12.616;2023-05-10T08:07:32;6.40;;;3.45;;
7545;SDS011;3814;51.454;12.616;2023-05-10T08:09:58;5.43;;;3.25;;
7545;SDS011;3814;51.454;12.616;2023-05-10T08:12:23;4.13;;;2.90;;
7545;SDS011;3814;51.454;12.616;2023-05-10T08:14:49;6.25;;;3.50;;
7545;SDS011;3814;51.454;12.616;2023-05-10T08:17:14;7.78;;;3.55;;
7545;SDS011;3814;51.454;12.616;2023-05-10T08:19:39;7.10;;;3.63;;
7545;SDS011;3814;51.454;12.616;2023-05-10T08:22:05;5.93;;;3.30;;
7545;SDS011;3814;51.454;12.616;2023-05-10T08:24:30;6.18;;;3.50;;
7545;SDS011;3814;51.454;12.616;2023-05-10T08:26:55;5.65;;;2.90;;
7545;SDS011;3814;51.454;12.616;2023-05-10T08:29:20;4.75;;;3.33;;
7545;SDS011;3814;51.454;12.616;2023-05-10T08:31:46;5.18;;;3.45;;
7545;SDS011;3814;51.454;12.616;2023-05-10T08:34:11;4.90;;;3.25;;
7545;SDS011;3814;51.454;12.616;2023-05-10T08:36:36;6.60;;;3.78;;
7545;SDS011;3814;51.454;12.616;2023-05-10T08:39:02;7.32;;;3.80;;
7545;SDS011;3814;51.454;12.616;2023-05-10T08:41:27;5.40;;;3.70;;
7545;SDS011;3814;51.454;12.616;2023-05-10T08:43:53;6.00;;;3.70;;
7545;SDS011;3814;51.454;12.616;2023-05-10T08:46:19;7.10;;;3.63;;
7545;SDS011;3814;51.454;12.616;2023-05-10T08:48:45;6.45;;;3.60;;
7545;SDS011;3814;51.454;12.616;2023-05-10T08:51:13;5.97;;;3.90;;
7545;SDS011;3814;51.454;12.616;2023-05-10T08:53:39;6.72;;;3.88;;
7545;SDS011;3814;51.454;12.616;2023-05-10T08:56:04;4.78;;;3.60;;
7545;SDS011;3814;51.454;12.616;2023-05-10T08:58:30;6.18;;;3.60;;
7545;SDS011;3814;51.454;12.616;2023-05-10T09:00:55;6.43;;;4.07;;
7545;SDS011;3814;51.454;12.616;2023-05-10T09:03:21;6.22;;;3.90;;
7545;SDS011;3814;51.454;12.616;2023-05-10T09:05:47;5.03;;;3.78;;
7545;SDS011;3814;51.454;12.616;2023-05-10T09:08:13;4.88;;;3.30;;
7545;SDS011;3814;51.454;12.616;2023-05-10T09:10:41;7.55;;;3.78;;
7545;SDS011;3814;51.454;12.616;2023-05-10T09:13:08;6.25;;;3.70;;
7545;SDS011;3814;51.454;12.616;2023-05-10T09:15:35;6.45;;;3.78;;
7545;SDS011;3814;51.454;12.616;2023-05-10T09:18:00;6.05;;;3.72;;
7545;SDS011;3814;51.454;12.616;2023-05-10T09:20:27;6.50;;;3.42;;
7545;SDS011;3814;51.454;12.616;2023-05-10T09:22:52;8.25;;;3.80;;
7545;SDS011;3814;51.454;12.616;2023-05-10T09:25:18;5.88;;;3.88;;
7545;SDS011;3814;51.454;12.616;2023-05-10T09:27:47;6.97;;;3.90;;
7545;SDS011;3814;51.454;12.616;2023-05-10T09:30:16;6.43;;;4.05;;
7545;SDS011;3814;51.454;12.616;2023-05-10T09:32:43;7.35;;;4.15;;
7545;SDS011;3814;51.454;12.616;2023-05-10T09:35:10;6.85;;;3.90;;
7545;SDS011;3814;51.454;12.616;2023-05-10T09:37:36;5.30;;;3.58;;
7545;SDS011;3814;51.454;12.616;2023-05-10T09:40:06;6.50;;;3.70;;
7545;SDS011;3814;51.454;12.616;2023-05-10T09:42:33;5.25;;;3.58;;
7545;SDS011;3814;51.454;12.616;2023-05-10T09:45:02;6.15;;;3.78;;
7545;SDS011;3814;51.454;12.616;2023-05-10T09:47:31;7.60;;;3.83;;
7545;SDS011;3814;51.454;12.616;2023-05-10T09:50:00;7.22;;;3.70;;
7545;SDS011;3814;51.454;12.616;2023-05-10T09:52:28;5.65;;;4.10;;
7545;SDS011;3814;51.454;12.616;2023-05-10T09:54:57;6.90;;;3.88;;
7545;SDS011;3814;51.454;12.616;2023-05-10T09:57:23;8.60;;;3.95;;
7545;SDS011;3814;51.454;12.616;2023-05-10T09:59:49;7.03;;;4.13;;
7545;SDS011;3814;51.454;12.616;2023-05-10T10:02:18;6.47;;;3.88;;
7545;SDS011;3814;51.454;12.616;2023-05-10T10:04:44;6.82;;;4.20;;
7545;SDS011;3814;51.454;12.616;2023-05-10T10:07:09;8.13;;;4.30;;
7545;SDS011;3814;51.454;12.616;2023-05-10T10:09:35;6.40;;;4.20;;
7545;SDS011;3814;51.454;12.616;2023-05-10T10:12:01;8.82;;;4.63;;
7545;SDS011;3814;51.454;12.616;2023-05-10T10:14:27;6.60;;;3.75;;
7545;SDS011;3814;51.454;12.616;2023-05-10T10:16:52;7.13;;;3.95;;
7545;SDS011;3814;51.454;12.616;2023-05-10T10:19:18;7.63;;;4.03;;
7545;SDS011;3814;51.454;12.616;2023-05-10T10:21:45;7.57;;;4.10;;
7545;SDS011;3814;51.454;12.616;2023-05-10T10:24:10;7.05;;;4.28;;
7545;SDS011;3814;51.454;12.616;2023-05-10T10:26:36;5.55;;;3.97;;
7545;SDS011;3814;51.454;12.616;2023-05-10T10:29:12;6.78;;;4.10;;
7545;SDS011;3814;51.454;12.616;2023-05-10T10:34:35;7.07;;;4.22;;
7545;SDS011;3814;51.454;12.616;2023-05-10T10:37:05;7.70;;;4.32;;
7545;SDS011;3814;51.454;12.616;2023-05-10T10:39:31;8.20;;;4.88;;
7545;SDS011;3814;51.454;12.616;2023-05-10T10:41:57;7.43;;;4.40;;
7545;SDS011;3814;51.454;12.616;2023-05-10T10:44:33;8.32;;;4.10;;
7545;SDS011;3814;51.454;12.616;2023-05-10T10:49:37;8.00;;;4.60;;
7545;SDS011;3814;51.454;12.616;2023-05-10T10:54:57;7.43;;;4.22;;
7545;SDS011;3814;51.454;12.616;2023-05-10T10:57:25;7.43;;;4.30;;
7545;SDS011;3814;51.454;12.616;2023-05-10T10:59:51;7.88;;;4.57;;
7545;SDS011;3814;51.454;12.616;2023-05-10T11:05:23;6.97;;;4.60;;
7545;SDS011;3814;51.454;12.616;2023-05-10T11:07:58;7.70;;;4.60;;
7545;SDS011;3814;51.454;12.616;2023-05-10T11:10:24;6.07;;;3.87;;
7545;SDS011;3814;51.454;12.616;2023-05-10T11:13:00;8.95;;;4.30;;
7545;SDS011;3814;51.454;12.616;2023-05-10T11:15:34;6.45;;;4.10;;
7545;SDS011;3814;51.454;12.616;2023-05-10T11:18:19;8.65;;;4.35;;
7545;SDS011;3814;51.454;12.616;2023-05-10T11:20:52;8.48;;;4.30;;
7545;SDS011;3814;51.454;12.616;2023-05-10T11:23:21;7.80;;;4.45;;
7545;SDS011;3814;51.454;12.616;2023-05-10T11:25:47;6.90;;;4.35;;
7545;SDS011;3814;51.454;12.616;2023-05-10T11:28:13;7.07;;;4.60;;
7545;SDS011;3814;51.454;12.616;2023-05-10T11:30:39;6.95;;;4.53;;
7545;SDS011;3814;51.454;12.616;2023-05-10T11:33:05;8.32;;;4.80;;
7545;SDS011;3814;51.454;12.616;2023-05-10T11:35:32;6.63;;;4.20;;
7545;SDS011;3814;51.454;12.616;2023-05-10T11:38:02;7.00;;;4.50;;
7545;SDS011;3814;51.454;12.616;2023-05-10T11:40:30;7.97;;;4.70;;
7545;SDS011;3814;51.454;12.616;2023-05-10T11:42:56;9.05;;;4.47;;
7545;SDS011;3814;51.454;12.616;2023-05-10T11:45:23;7.25;;;4.80;;
7545;SDS011;3814;51.454;12.616;2023-05-10T11:47:49;8.55;;;5.15;;
7545;SDS011;3814;51.454;12.616;2023-05-10T11:50:14;7.55;;;4.93;;
7545;SDS011;3814;51.454;12.616;2023-05-10T11:52:40;8.30;;;5.10;;
7545;SDS011;3814;51.454;12.616;2023-05-10T11:55:05;10.27;;;5.13;;
7545;SDS011;3814;51.454;12.616;2023-05-10T11:57:31;8.40;;;5.10;;
7545;SDS011;3814;51.454;12.616;2023-05-10T11:59:56;7.10;;;4.80;;
7545;SDS011;3814;51.454;12.616;2023-05-10T12:02:22;9.13;;;4.78;;
7545;SDS011;3814;51.454;12.616;2023-05-10T12:04:47;7.80;;;5.00;;
7545;SDS011;3814;51.454;12.616;2023-05-10T12:07:12;9.23;;;5.15;;
7545;SDS011;3814;51.454;12.616;2023-05-10T12:09:42;8.30;;;5.15;;
7545;SDS011;3814;51.454;12.616;2023-05-10T12:12:08;8.77;;;4.80;;
7545;SDS011;3814;51.454;12.616;2023-05-10T12:14:34;7.95;;;4.80;;
7545;SDS011;3814;51.454;12.616;2023-05-10T12:17:00;8.43;;;5.05;;
7545;SDS011;3814;51.454;12.616;2023-05-10T12:19:25;9.65;;;5.15;;
7545;SDS011;3814;51.454;12.616;2023-05-10T12:21:50;7.93;;;4.85;;
7545;SDS011;3814;51.454;12.616;2023-05-10T12:24:15;7.22;;;4.65;;
7545;SDS011;3814;51.454;12.616;2023-05-10T12:26:42;9.18;;;5.20;;
7545;SDS011;3814;51.454;12.616;2023-05-10T12:29:11;9.63;;;5.30;;
7545;SDS011;3814;51.454;12.616;2023-05-10T12:31:54;6.97;;;4.85;;
7545;SDS011;3814;51.454;12.616;2023-05-10T12:34:27;8.35;;;5.20;;
7545;SDS011;3814;51.454;12.616;2023-05-10T12:36:58;8.40;;;5.30;;
7545;SDS011;3814;51.454;12.616;2023-05-10T12:39:24;7.90;;;5.13;;
7545;SDS011;3814;51.454;12.616;2023-05-10T12:41:50;8.32;;;4.90;;
7545;SDS011;3814;51.454;12.616;2023-05-10T12:44:15;9.00;;;5.10;;
7545;SDS011;3814;51.454;12.616;2023-05-10T12:46:41;6.75;;;4.53;;
7545;SDS011;3814;51.454;12.616;2023-05-10T12:49:06;8.65;;;4.65;;
7545;SDS011;3814;51.454;12.616;2023-05-10T12:51:31;7.93;;;4.93;;
7545;SDS011;3814;51.454;12.616;2023-05-10T12:53:57;8.10;;;5.20;;
7545;SDS011;3814;51.454;12.616;2023-05-10T12:56:22;9.38;;;5.43;;
7545;SDS011;3814;51.454;12.616;2023-05-10T12:58:47;7.72;;;5.50;;
7545;SDS011;3814;51.454;12.616;2023-05-10T13:01:13;7.82;;;4.88;;
7545;SDS011;3814;51.454;12.616;2023-05-10T13:03:39;7.50;;;4.47;;
7545;SDS011;3814;51.454;12.616;2023-05-10T13:06:04;6.55;;;4.20;;
7545;SDS011;3814;51.454;12.616;2023-05-10T13:08:31;5.70;;;4.20;;
7545;SDS011;3814;51.454;12.616;2023-05-10T13:10:58;7.00;;;4.90;;
7545;SDS011;3814;51.454;12.616;2023-05-10T13:13:24;8.57;;;4.65;;
7545;SDS011;3814;51.454;12.616;2023-05-10T13:15:49;7.10;;;4.85;;
7545;SDS011;3814;51.454;12.616;2023-05-10T13:18:15;7.40;;;4.90;;
7545;SDS011;3814;51.454;12.616;2023-05-10T13:20:40;7.75;;;4.40;;
7545;SDS011;3814;51.454;12.616;2023-05-10T13:23:05;6.63;;;4.70;;
7545;SDS011;3814;51.454;12.616;2023-05-10T13:25:31;7.32;;;4.78;;
7545;SDS011;3814;51.454;12.616;2023-05-10T13:27:56;9.00;;;4.32;;
7545;SDS011;3814;51.454;12.616;2023-05-10T13:30:21;7.10;;;4.95;;
7545;SDS011;3814;51.454;12.616;2023-05-10T13:32:48;7.15;;;5.03;;
7545;SDS011;3814;51.454;12.616;2023-05-10T13:35:14;7.63;;;4.95;;
7545;SDS011;3814;51.454;12.616;2023-05-10T13:37:39;7.15;;;4.75;;
7545;SDS011;3814;51.454;12.616;2023-05-10T13:40:04;7.57;;;4.78;;
7545;SDS011;3814;51.454;12.616;2023-05-10T13:42:31;7.20;;;4.70;;
7545;SDS011;3814;51.454;12.616;2023-05-10T13:44:58;6.53;;;4.38;;
7545;SDS011;3814;51.454;12.616;2023-05-10T13:47:23;8.15;;;4.90;;
7545;SDS011;3814;51.454;12.616;2023-05-10T13:49:49;9.07;;;4.97;;
7545;SDS011;3814;51.454;12.616;2023-05-10T13:52:14;8.18;;;4.90;;
7545;SDS011;3814;51.454;12.616;2023-05-10T13:54:39;7.95;;;4.70;;
7545;SDS011;3814;51.454;12.616;2023-05-10T13:57:05;8.85;;;5.10;;
7545;SDS011;3814;51.454;12.616;2023-05-10T13:59:30;8.95;;;5.53;;
7545;SDS011;3814;51.454;12.616;2023-05-10T14:01:56;8.70;;;5.18;;
7545;SDS011;3814;51.454;12.616;2023-05-10T14:04:22;11.00;;;5.88;;
7545;SDS011;3814;51.454;12.616;2023-05-10T14:06:47;7.70;;;5.47;;
7545;SDS011;3814;51.454;12.616;2023-05-10T14:09:13;8.55;;;5.60;;
7545;SDS011;3814;51.454;12.616;2023-05-10T14:11:38;7.90;;;4.72;;
7545;SDS011;3814;51.454;12.616;2023-05-10T14:14:07;7.07;;;4.53;;
7545;SDS011;3814;51.454;12.616;2023-05-10T14:16:33;8.07;;;5.05;;
7545;SDS011;3814;51.454;12.616;2023-05-10T14:18:58;8.10;;;4.72;;
7545;SDS011;3814;51.454;12.616;2023-05-10T14:21:23;7.72;;;4.85;;
7545;SDS011;3814;51.454;12.616;2023-05-10T14:23:49;7.20;;;4.40;;
7545;SDS011;3814;51.454;12.616;2023-05-10T14:26:14;8.07;;;4.38;;
7545;SDS011;3814;51.454;12.616;2023-05-10T14:28:39;7.50;;;4.35;;
7545;SDS011;3814;51.454;12.616;2023-05-10T14:31:05;5.60;;;3.75;;
7545;SDS011;3814;51.454;12.616;2023-05-10T14:33:30;4.95;;;3.25;;
7545;SDS011;3814;51.454;12.616;2023-05-10T14:35:56;4.22;;;3.08;;
7545;SDS011;3814;51.454;12.616;2023-05-10T14:38:21;5.38;;;3.45;;
7545;SDS011;3814;51.454;12.616;2023-05-10T14:40:47;5.22;;;3.45;;
7545;SDS011;3814;51.454;12.616;2023-05-10T14:43:12;4.43;;;3.20;;
7545;SDS011;3814;51.454;12.616;2023-05-10T14:45:37;6.25;;;3.95;;
7545;SDS011;3814;51.454;12.616;2023-05-10T14:48:03;5.80;;;4.05;;
7545;SDS011;3814;51.454;12.616;2023-05-10T14:50:29;6.20;;;3.88;;
7545;SDS011;3814;51.454;12.616;2023-05-10T14:52:55;5.18;;;3.72;;
7545;SDS011;3814;51.454;12.616;2023-05-10T14:55:21;5.93;;;3.70;;
7545;SDS011;3814;51.454;12.616;2023-05-10T14:57:46;4.72;;;3.45;;
7545;SDS011;3814;51.454;12.616;2023-05-10T15:00:12;4.63;;;3.33;;
7545;SDS011;3814;51.454;12.616;2023-05-10T15:02:40;5.20;;;3.30;;
7545;SDS011;3814;51.454;12.616;2023-05-10T15:05:06;5.25;;;3.22;;
7545;SDS011;3814;51.454;12.616;2023-05-10T15:07:31;4.47;;;2.63;;
7545;SDS011;3814;51.454;12.616;2023-05-10T15:09:57;4.07;;;2.70;;
7545;SDS011;3814;51.454;12.616;2023-05-10T15:12:22;4.85;;;3.10;;
7545;SDS011;3814;51.454;12.616;2023-05-10T15:14:47;4.50;;;3.20;;
7545;SDS011;3814;51.454;12.616;2023-05-10T15:17:13;4.90;;;3.70;;
7545;SDS011;3814;51.454;12.616;2023-05-10T15:19:38;6.95;;;3.47;;
7545;SDS011;3814;51.454;12.616;2023-05-10T15:22:04;4.55;;;3.25;;
7545;SDS011;3814;51.454;12.616;2023-05-10T15:24:29;5.20;;;3.53;;